Time;durP1;ratioP1;P1;durP2;ratioP2;P2;SDS_P1;SDS_P2;PMS_P1;PMS_P2;Temp;Humidity;BMP_temperature;BMP_pressure;BME280_temperature;BME280_humidity;BME280_pressure;Samples;Min_cycle;Max_cycle;Signal;HPM_P1;HPM_P2
2023/11/18 00:01:05;;;;;;;2.80;1.00;;;-3.90;99.90;;;;;;1915505;75;25188;-90
2023/11/18 00:04:00;;;;;;;1.53;1.20;;;-4.00;99.90;;;;;;1916601;75;25371;-90
2023/11/18 00:06:50;;;;;;;1.07;1.03;;;-4.00;99.90;;;;;;1917812;73;25253;-90
2023/11/18 00:10:05;;;;;;;3.00;1.10;;;-4.00;99.90;;;;;;1917004;73;25259;-90
2023/11/18 00:13:01;;;;;;;1.30;1.20;;;-4.00;99.90;;;;;;1941332;73;25204;-89
2023/11/18 00:16:03;;;;;;;1.60;0.90;;;-4.00;99.90;;;;;;1920644;73;25240;-89
2023/11/18 00:18:58;;;;;;;2.13;1.50;;;-4.10;99.90;;;;;;1937761;73;25274;-89
2023/11/18 00:21:59;;;;;;;1.77;1.27;;;-4.10;99.90;;;;;;1924683;73;25182;-89
2023/11/18 00:24:50;;;;;;;2.17;1.47;;;-4.10;99.90;;;;;;1918782;73;25737;-89
2023/11/18 00:27:55;;;;;;;2.20;1.30;;;-4.10;99.90;;;;;;1934641;73;25248;-89
2023/11/18 00:56:32;;;;;;;1.87;1.40;;;-4.10;99.90;;;;;;1920227;73;25277;-90
2023/11/18 00:59:24;;;;;;;1.70;1.17;;;-4.10;99.90;;;;;;1920280;73;25248;-90
2023/11/18 01:02:18;;;;;;;1.20;1.10;;;-4.20;99.90;;;;;;1920178;73;25242;-90
2023/11/18 01:05:16;;;;;;;3.60;1.30;;;-4.20;99.90;;;;;;1920284;73;25306;-90
2023/11/18 01:08:21;;;;;;;1.60;1.50;;;-4.20;99.90;;;;;;1917930;73;25704;-90
2023/11/18 01:11:47;;;;;;;1.80;1.53;;;-4.20;99.90;;;;;;1910544;73;25182;-90
2023/11/18 01:14:44;;;;;;;1.70;1.47;;;-4.20;99.90;;;;;;1916024;73;25168;-90
2023/11/18 01:18:02;;;;;;;1.57;1.27;;;-4.10;99.90;;;;;;1936713;73;25758;-90
2023/11/18 01:21:01;;;;;;;1.77;1.63;;;-4.00;99.90;;;;;;1923712;73;25241;-90
2023/11/18 01:23:59;;;;;;;2.67;1.23;;;-4.10;99.90;;;;;;1931682;73;25242;-90
2023/11/18 01:26:52;;;;;;;3.57;1.70;;;-4.10;99.90;;;;;;1924764;73;25723;-90
2023/11/18 01:29:49;;;;;;;1.67;1.57;;;-4.20;99.90;;;;;;1921212;73;25241;-91
2023/11/18 01:32:40;;;;;;;1.30;1.13;;;-4.20;99.90;;;;;;1921901;73;25235;-90
2023/11/18 01:35:38;;;;;;;2.90;1.80;;;-4.20;99.90;;;;;;1918000;73;25225;-89
2023/11/18 01:38:29;;;;;;;3.53;2.10;;;-4.20;99.90;;;;;;1935953;73;25669;-89
2023/11/18 01:48:28;;;;;;;1.50;1.40;;;-4.20;99.90;;;;;;1957720;72;25264;-90
2023/11/18 01:51:20;;;;;;;2.00;1.60;;;-4.20;99.90;;;;;;2033513;70;25651;-90
2023/11/18 01:54:15;;;;;;;1.50;1.27;;;-4.20;99.90;;;;;;2031601;69;25249;-90
2023/11/18 01:57:06;;;;;;;2.93;1.90;;;-4.30;99.90;;;;;;2032182;70;25142;-90
2023/11/18 02:00:06;;;;;;;2.70;1.87;;;-4.20;99.90;;;;;;2042883;69;25273;-90
2023/11/18 02:02:56;;;;;;;4.93;2.30;;;-4.20;99.90;;;;;;2032622;69;25160;-90
2023/11/18 02:05:48;;;;;;;1.03;0.90;;;-4.20;99.90;;;;;;2032913;69;25186;-90
2023/11/18 02:08:54;;;;;;;9.33;1.93;;;-4.20;99.90;;;;;;2040478;69;25159;-90
2023/11/18 02:11:49;;;;;;;3.27;2.37;;;-4.20;99.90;;;;;;2031693;69;25871;-90
2023/11/18 02:14:48;;;;;;;2.07;1.67;;;-4.10;99.90;;;;;;2032403;69;25243;-90
2023/11/18 02:17:57;;;;;;;2.00;1.60;;;-4.00;99.90;;;;;;2047332;69;25286;-90
2023/11/18 02:20:52;;;;;;;2.43;1.73;;;-4.10;99.90;;;;;;2040292;69;25197;-89
2023/11/18 02:23:44;;;;;;;2.73;1.80;;;-4.10;99.90;;;;;;2040450;69;25286;-89
2023/11/18 02:26:37;;;;;;;1.67;1.57;;;-4.10;99.90;;;;;;2042168;69;25260;-90
2023/11/18 02:32:56;;;;;;;4.67;2.17;;;-4.10;99.90;;;;;;1943536;72;29300;-90
2023/11/18 02:36:20;;;;;;;3.60;2.37;;;-4.10;99.90;;;;;;1932058;73;25654;-91
2023/11/18 02:39:18;;;;;;;1.90;1.40;;;-4.10;99.90;;;;;;1909305;73;25295;-89
2023/11/18 02:42:23;;;;;;;4.37;2.03;;;-4.10;99.90;;;;;;1929323;73;25311;-90
2023/11/18 02:45:54;;;;;;;5.90;2.10;;;-4.10;99.90;;;;;;1941085;73;25217;-90
2023/11/18 02:48:53;;;;;;;2.97;2.43;;;-4.00;99.90;;;;;;1920288;73;25277;-90
2023/11/18 02:55:17;;;;;;;7.13;2.50;;;-4.10;99.90;;;;;;1911303;75;25651;-90
2023/11/18 02:58:46;;;;;;;2.07;1.17;;;-4.00;99.90;;;;;;1916218;73;25762;-90
2023/11/18 03:01:38;;;;;;;3.43;2.40;;;-4.10;99.90;;;;;;1919117;73;25218;-90
2023/11/18 03:07:26;;;;;;;2.20;2.00;;;-4.10;99.90;;;;;;1943037;72;27535;-90
2023/11/18 03:10:22;;;;;;;3.03;2.20;;;-4.10;99.90;;;;;;1933192;73;25260;-90
2023/11/18 03:13:14;;;;;;;2.70;1.83;;;-4.00;99.90;;;;;;1917330;73;25769;-90
2023/11/18 03:32:20;;;;;;;3.27;2.23;;;-4.00;99.90;;;;;;1946015;72;27757;-90
2023/11/18 03:35:11;;;;;;;2.83;2.10;;;-4.00;99.90;;;;;;1918283;73;25283;-90
2023/11/18 03:43:22;;;;;;;2.90;2.33;;;-3.90;99.90;;;;;;1929805;72;29383;-91
2023/11/18 03:46:12;;;;;;;2.73;2.30;;;-3.90;99.90;;;;;;1928835;74;25221;-92
2023/11/18 03:49:02;;;;;;;3.03;2.27;;;-4.00;99.90;;;;;;1989580;71;25260;-91
2023/11/18 03:52:09;;;;;;;9.17;2.70;;;-3.90;99.90;;;;;;1995518;71;25252;-90
2023/11/18 03:54:58;;;;;;;3.20;2.23;;;-4.00;99.90;;;;;;1972418;72;25150;-91
2023/11/18 03:57:47;;;;;;;3.33;2.43;;;-4.00;99.90;;;;;;1899783;74;25246;-90
2023/11/18 04:00:36;;;;;;;3.00;2.37;;;-4.00;99.90;;;;;;1967730;71;25160;-90
2023/11/18 04:03:26;;;;;;;3.60;2.37;;;-4.10;99.90;;;;;;1981337;71;25867;-91
2023/11/18 04:06:25;;;;;;;2.67;2.40;;;-4.00;99.90;;;;;;1983469;71;25218;-90
2023/11/18 04:09:18;;;;;;;2.60;2.20;;;-3.90;99.90;;;;;;1989917;72;25253;-90
2023/11/18 04:12:10;;;;;;;4.83;2.93;;;-3.90;99.90;;;;;;1941211;72;25676;-90
2023/11/18 04:15:05;;;;;;;3.63;2.30;;;-3.90;99.90;;;;;;1963332;71;25221;-90
2023/11/18 04:18:14;;;;;;;2.47;2.23;;;-3.90;99.90;;;;;;1982980;71;25288;-90
2023/11/18 04:21:04;;;;;;;2.53;2.10;;;-3.90;99.90;;;;;;1901152;75;25334;-90
2023/11/18 04:23:59;;;;;;;3.03;2.20;;;-4.00;99.90;;;;;;1967981;72;26525;-90
2023/11/18 04:26:49;;;;;;;4.67;2.40;;;-4.00;99.90;;;;;;1963950;72;25231;-91
2023/11/18 04:29:40;;;;;;;1.80;1.70;;;-4.00;99.90;;;;;;1896585;74;25197;-90
2023/11/18 04:36:51;;;;;;;3.53;2.60;;;-4.10;99.90;;;;;;1876113;75;27149;-90
2023/11/18 04:39:40;;;;;;;3.13;1.70;;;-4.20;99.90;;;;;;1841613;78;25673;-91
2023/11/18 04:42:30;;;;;;;2.70;1.87;;;-4.30;99.90;;;;;;1842178;76;25352;-91
2023/11/18 04:45:30;;;;;;;4.07;2.13;;;-4.30;99.90;;;;;;1818097;78;25326;-90
2023/11/18 04:48:27;;;;;;;2.40;2.10;;;-4.30;99.90;;;;;;1818468;78;25277;-90
2023/11/18 05:26:52;;;;;;;3.07;2.27;;;-4.30;99.90;;;;;;1942383;72;28278;-90
2023/11/18 05:29:45;;;;;;;3.17;2.37;;;-4.40;99.90;;;;;;1906728;75;25190;-91
2023/11/18 05:32:40;;;;;;;3.03;2.10;;;-4.30;99.90;;;;;;1897484;75;25638;-91
2023/11/18 05:35:34;;;;;;;6.57;2.50;;;-4.40;99.90;;;;;;1892832;75;25270;-89
2023/11/18 05:38:31;;;;;;;2.47;2.03;;;-4.40;99.90;;;;;;1903384;75;25729;-90
2023/11/18 05:41:56;;;;;;;4.73;1.70;;;-4.50;99.90;;;;;;1887005;75;25314;-90
2023/11/18 05:48:41;;;;;;;3.73;2.50;;;-4.40;99.90;;;;;;1864373;76;25318;-90
2023/11/18 05:51:32;;;;;;;4.17;2.00;;;-4.50;99.90;;;;;;1866958;76;25247;-90
2023/11/18 05:54:23;;;;;;;3.70;2.57;;;-4.50;99.90;;;;;;1865330;76;25705;-90
2023/11/18 06:40:21;;;;;;;6.93;3.87;;;-4.50;99.90;;;;;;1908815;74;30599;-90
2023/11/18 06:57:56;;;;;;;3.60;2.23;;;-4.70;99.90;;;;;;1921989;73;27822;-89
2023/11/18 07:18:02;;;;;;;20.07;5.73;;;-5.00;99.90;;;;;;1945505;72;26874;-90
2023/11/18 07:20:52;;;;;;;2.60;2.13;;;-5.10;99.90;;;;;;1931458;73;25287;-90
2023/11/18 08:38:12;;;;;;;6.60;2.87;;;-4.90;99.90;;;;;;1975859;71;27026;-90
2023/11/18 08:41:03;;;;;;;2.73;2.00;;;-5.10;99.90;;;;;;1890310;74;25182;-91
2023/11/18 08:43:53;;;;;;;5.37;2.40;;;-5.10;99.90;;;;;;1925714;73;25454;-90
2023/11/18 08:46:43;;;;;;;9.37;6.03;;;-5.20;99.90;;;;;;1925470;74;25287;-90
2023/11/18 08:49:33;;;;;;;3.77;2.47;;;-5.30;99.90;;;;;;1925740;74;25635;-91
2023/11/18 09:10:38;;;;;;;4.60;2.87;;;-5.30;99.90;;;;;;2006608;71;27067;-91
2023/11/18 09:13:29;;;;;;;3.37;2.67;;;-4.50;99.90;;;;;;1971440;72;25311;-91
2023/11/18 09:20:13;;;;;;;3.53;2.70;;;-4.60;99.90;;;;;;1982317;71;26289;-90
2023/11/18 09:23:04;;;;;;;4.50;3.20;;;-4.70;99.90;;;;;;1952398;72;25255;-91
2023/11/18 09:25:54;;;;;;;4.03;2.80;;;-4.90;99.90;;;;;;1953447;72;25239;-91
2023/11/18 09:28:44;;;;;;;4.43;2.17;;;-4.90;99.90;;;;;;1962526;72;25195;-90
2023/11/18 09:31:33;;;;;;;2.30;1.83;;;-4.90;99.90;;;;;;1955214;72;25223;-90
2023/11/18 09:34:33;;;;;;;7.70;2.23;;;-5.30;99.90;;;;;;1962226;72;25253;-91
2023/11/18 09:37:18;;;;;;;2.47;2.07;;;-5.30;99.90;;;;;;1952604;72;25782;-91
2023/11/18 09:40:12;;;;;;;5.63;2.27;;;-5.40;99.90;;;;;;1952209;72;25311;-90
2023/11/18 09:43:09;;;;;;;4.70;2.50;;;-5.40;99.90;;;;;;1946243;72;25337;-90
2023/11/18 12:15:53;;;;;;;59.37;16.60;;;-4.20;99.90;;;;;;1916316;74;28425;-90
2023/11/18 12:18:43;;;;;;;7.20;3.43;;;-4.40;99.90;;;;;;1873137;75;25272;-90
2023/11/18 12:21:56;;;;;;;6.53;2.57;;;-4.50;99.90;;;;;;1860559;76;25254;-90
2023/11/18 12:24:47;;;;;;;5.03;3.17;;;-4.40;99.90;;;;;;1858213;76;25337;-90
2023/11/18 12:27:51;;;;;;;11.80;3.27;;;-4.60;99.90;;;;;;1880652;75;25234;-90
2023/11/18 12:30:51;;;;;;;6.13;3.03;;;-4.40;99.90;;;;;;1864200;76;25260;-89
2023/11/18 12:34:08;;;;;;;7.60;4.07;;;-4.50;99.90;;;;;;1874391;76;25155;-89
2023/11/18 15:26:23;;;;;;;5.40;3.07;;;-5.40;99.90;;;;;;2024162;70;26369;-89
2023/11/18 15:29:14;;;;;;;14.83;6.40;;;-5.60;99.90;;;;;;1994377;71;25147;-89
2023/11/18 15:32:05;;;;;;;4.33;2.43;;;-5.60;99.90;;;;;;1993653;71;25134;-90
2023/11/18 15:52:12;;;;;;;18.47;7.00;;;-5.40;99.90;;;;;;1964818;72;27324;-90
2023/11/18 15:55:09;;;;;;;18.73;6.90;;;-5.30;99.90;;;;;;1942092;73;25352;-90
2023/11/18 15:57:55;;;;;;;16.63;6.53;;;-5.40;99.90;;;;;;1928931;73;25324;-90
2023/11/18 16:00:44;;;;;;;10.30;5.20;;;-5.30;99.90;;;;;;1941376;73;25235;-90
2023/11/18 16:03:33;;;;;;;9.13;4.97;;;-5.20;99.90;;;;;;1943498;73;25208;-90
2023/11/18 16:06:22;;;;;;;11.20;5.00;;;-5.30;99.90;;;;;;1938617;72;25226;-90
2023/11/18 16:09:13;;;;;;;9.50;4.70;;;-5.40;99.90;;;;;;1941981;73;25314;-90
2023/11/18 16:12:03;;;;;;;9.87;4.03;;;-5.50;99.90;;;;;;1934075;73;26452;-90
2023/11/18 16:14:52;;;;;;;8.27;4.17;;;-5.40;99.90;;;;;;1943941;73;25170;-91
2023/11/18 16:17:45;;;;;;;11.13;5.60;;;-5.40;99.90;;;;;;1941434;73;25347;-89
2023/11/18 16:20:34;;;;;;;9.30;4.27;;;-5.40;99.90;;;;;;1938303;73;25213;-89
2023/11/18 16:23:23;;;;;;;5.87;2.90;;;-5.50;99.90;;;;;;1923739;73;25671;-89
2023/11/18 16:26:13;;;;;;;9.73;5.03;;;-5.50;99.90;;;;;;1943028;73;25877;-90
2023/11/18 16:29:01;;;;;;;9.27;3.63;;;-5.50;99.90;;;;;;1923232;73;26014;-89
2023/11/18 16:31:55;;;;;;;14.90;5.77;;;-5.50;99.90;;;;;;1922868;73;25799;-90
2023/11/18 17:18:25;;;;;;;25.37;8.53;;;-5.30;99.90;;;;;;1979814;71;26888;-90
2023/11/18 17:21:14;;;;;;;17.90;8.20;;;-5.50;99.90;;;;;;1923152;73;26448;-90
2023/11/18 17:24:04;;;;;;;15.63;6.93;;;-5.40;99.90;;;;;;1909605;74;25244;-91
2023/11/18 17:26:53;;;;;;;21.67;8.10;;;-5.40;99.90;;;;;;1914740;73;25636;-90
2023/11/18 17:29:43;;;;;;;20.37;8.97;;;-5.50;99.90;;;;;;1911802;74;25164;-90
2023/11/18 17:32:32;;;;;;;22.37;9.23;;;-5.50;99.90;;;;;;1904761;74;25374;-90
2023/11/18 17:35:20;;;;;;;18.07;8.27;;;-5.60;99.90;;;;;;1911901;74;25976;-89
2023/11/18 17:38:09;;;;;;;16.27;8.17;;;-5.70;99.90;;;;;;1913045;74;25633;-90
2023/11/18 17:40:58;;;;;;;22.03;8.77;;;-5.80;99.90;;;;;;1909641;73;25637;-91
2023/11/18 17:57:46;;;;;;;19.00;9.03;;;-5.60;99.90;;;;;;1922928;73;27348;-89
2023/11/18 18:47:03;;;;;;;18.70;9.67;;;-4.70;99.90;;;;;;1931383;72;27193;-90
2023/11/18 18:49:52;;;;;;;20.43;7.67;;;-4.80;99.90;;;;;;1905436;75;25326;-89
2023/11/18 19:31:49;;;;;;;21.93;10.17;;;-4.80;99.90;;;;;;1981860;71;27562;-91
2023/11/18 19:34:38;;;;;;;25.77;9.43;;;-5.00;99.90;;;;;;1973011;72;25236;-91
2023/11/18 19:37:27;;;;;;;27.37;8.83;;;-5.00;99.90;;;;;;2045001;69;25139;-90
2023/11/18 19:40:16;;;;;;;25.13;8.77;;;-5.10;99.90;;;;;;2032869;70;25313;-91
2023/11/18 19:43:05;;;;;;;29.80;9.67;;;-5.20;99.90;;;;;;2017308;69;25512;-90
2023/11/18 19:45:55;;;;;;;24.60;9.90;;;-5.00;99.90;;;;;;2010242;71;25204;-90
2023/11/18 19:48:44;;;;;;;22.20;9.70;;;-5.10;99.90;;;;;;1995536;71;25132;-90
2023/11/18 19:51:34;;;;;;;24.20;9.60;;;-5.10;99.90;;;;;;2013571;71;25245;-90
2023/11/18 19:54:22;;;;;;;26.60;10.87;;;-5.10;99.90;;;;;;1996149;71;25233;-90
2023/11/18 19:57:11;;;;;;;21.47;9.30;;;-5.00;99.90;;;;;;1993634;71;25263;-90
2023/11/18 20:00:00;;;;;;;25.33;8.53;;;-4.70;99.90;;;;;;1999101;71;25194;-90
2023/11/18 20:02:51;;;;;;;28.13;8.57;;;-4.70;99.90;;;;;;1996811;71;25633;-90
2023/11/18 20:05:40;;;;;;;23.20;8.73;;;-4.90;99.90;;;;;;2012575;71;25214;-90
2023/11/18 20:35:45;;;;;;;21.53;9.63;;;-5.20;99.90;;;;;;1892473;74;26276;-89
2023/11/18 20:41:15;;;;;;;16.47;6.03;;;-5.10;99.90;;;;;;1952647;72;27368;-90
2023/11/18 21:02:22;;;;;;;15.10;5.30;;;-5.20;99.90;;;;;;1946246;72;27525;-90
2023/11/18 21:08:09;;;;;;;10.67;4.40;;;-5.40;99.90;;;;;;1965715;72;26940;-89
2023/11/18 21:10:54;;;;;;;8.90;3.63;;;-5.50;99.90;;;;;;1922964;73;25159;-89
2023/11/18 21:13:43;;;;;;;9.17;3.70;;;-5.50;99.90;;;;;;1915648;73;25672;-89
2023/11/18 21:16:33;;;;;;;9.37;3.83;;;-5.50;99.90;;;;;;1948389;72;25273;-90
2023/11/18 21:19:23;;;;;;;20.40;5.63;;;-5.50;99.90;;;;;;1923897;73;25273;-88
2023/11/18 21:22:13;;;;;;;14.13;4.93;;;-5.40;99.90;;;;;;1948518;73;25313;-89
2023/11/18 21:25:05;;;;;;;15.40;5.03;;;-5.50;99.90;;;;;;1931992;72;25282;-89
2023/11/18 21:27:52;;;;;;;15.37;6.07;;;-5.40;99.90;;;;;;1937015;72;25270;-89
2023/11/18 21:30:41;;;;;;;8.07;3.13;;;-5.30;99.90;;;;;;1949429;71;25355;-89
2023/11/18 21:33:29;;;;;;;15.17;4.93;;;-5.20;99.90;;;;;;1941360;73;25357;-89
2023/11/18 21:39:12;;;;;;;19.10;5.53;;;-5.30;99.90;;;;;;1978444;71;27074;-90
2023/11/18 21:42:00;;;;;;;10.90;4.10;;;-5.40;99.90;;;;;;1938369;72;25659;-90
2023/11/18 21:48:33;;;;;;;8.77;3.57;;;-5.30;99.90;;;;;;1919940;73;25293;-90
2023/11/18 22:29:49;;;;;;;4.70;2.33;;;-5.50;99.90;;;;;;1952587;72;26705;-90
2023/11/18 22:52:57;;;;;;;16.23;5.23;;;-5.30;99.90;;;;;;1954307;72;27001;-91
2023/11/18 22:55:47;;;;;;;13.87;5.10;;;-5.20;99.90;;;;;;1931674;73;25263;-89
2023/11/18 22:58:38;;;;;;;6.07;3.30;;;-5.30;99.90;;;;;;1927611;73;25322;-90
2023/11/18 23:01:27;;;;;;;11.77;4.80;;;-5.30;99.90;;;;;;1946054;73;25198;-90
2023/11/18 23:04:17;;;;;;;12.43;5.27;;;-5.40;99.90;;;;;;1942428;73;25341;-90
2023/11/18 23:07:07;;;;;;;10.40;4.63;;;-5.40;99.90;;;;;;1941206;73;25210;-89
2023/11/18 23:09:57;;;;;;;16.27;4.13;;;-5.30;99.90;;;;;;1930521;73;25203;-90
2023/11/18 23:12:46;;;;;;;11.17;3.90;;;-5.30;99.90;;;;;;1940268;73;25707;-90
2023/11/18 23:15:36;;;;;;;10.00;4.10;;;-5.40;99.90;;;;;;1933398;73;25263;-90
2023/11/18 23:21:48;;;;;;;13.43;4.83;;;-5.30;99.90;;;;;;1988935;71;26195;-90
2023/11/18 23:24:38;;;;;;;12.93;4.43;;;-5.30;99.90;;;;;;1970962;72;25634;-90
2023/11/18 23:27:31;;;;;;;18.47;5.03;;;-5.30;99.90;;;;;;2043006;69;25677;-90
2023/11/18 23:30:21;;;;;;;8.63;3.10;;;-5.30;99.90;;;;;;2032237;69;25207;-90
2023/11/18 23:33:09;;;;;;;10.57;4.00;;;-5.30;99.90;;;;;;2031620;69;25212;-90
2023/11/18 23:53:02;;;;;;;14.63;4.97;;;-5.10;99.90;;;;;;1922971;73;25202;-89
